Terminal Aerodrome Forecast
Issued by NWS Jacksonville, FL

Home | Current Version | Previous Version | Text Only | Print | Product List | Glossary On
Versions: 1 2 3 4 5 6 7 8 9 10 11 12 13 14
398
FTUS42 KJAX 252330
TAFSSI
TAF
KSSI 252330Z 2600/2624 16007KT P6SM SKC
     FM261000 22003KT P6SM SKC
     FM261500 18006KT P6SM FEW035
     FM261800 14009KT P6SM SCT050=

USA.gov is the U.S. government's official web portal to all federal, state and local government web resources and services.